^^
Station Historical Data
 
Daily Summary for May 27, 2017 Units:  Metric    English   Both
« Previous Day
Next Day »
Daily Weekly Monthly Yearly Custom
  Current: High: Low: Average:
Temperature: 13.3 °C 16.5 °C 12.6 °C 14.2 °C
Dew Point: 11.9 °C 12.6 °C 10.4 °C 11.5 °C
Humidity: 91 % 91 % 77 % 84 %
Wind Speed: 5.6 km/h 14.8 km/h 0 km/h 3.4 km/h
Wind Gust: 5.6 km/h 14.8 km/h - -
Wind:WNW - - SW
Pressure: 1011.7 hPa 1014.8 hPa 1011.4 hPa -
Precipitation: 0 mm      
Historical Graphs
 
 
Tabular Data for May 27, 2017
Time Temperature Dew Point Pressure Wind Wind Speed Wind Gust Humidity Rainfall Rate (Hourly) solar Conditions
00:02 16.5 °C 12.4 °C 1014.8 hPa SSE 5.6 km/h 5.6 km/h 77 % 0 mm 0.0 W/m2 SCT
00:07 16.5 °C 12.4 °C 1014.8 hPa SSE 3.7 km/h 3.7 km/h 77 % 0 mm 0.0 W/m2 SCT
00:12 16.4 °C 12.4 °C 1014.8 hPa South 3.7 km/h 3.7 km/h 77 % 0 mm 0.0 W/m2 SCT
00:17 16.4 °C 12.3 °C 1014.8 hPa South 5.6 km/h 5.6 km/h 77 % 0 mm 0.0 W/m2 SCT
00:22 16.3 °C 12.3 °C 1014.8 hPa South 5.6 km/h 5.6 km/h 77 % 0 mm 0.0 W/m2 SCT
00:27 16.3 °C 12.2 °C 1014.8 hPa SSE 7.4 km/h 7.4 km/h 77 % 0 mm 0.0 W/m2 SCT
00:32 16.2 °C 12.4 °C 1014.8 hPa SSW 11.1 km/h 11.1 km/h 78 % 0 mm 0.0 W/m2 SCT
00:37 16.2 °C 12.3 °C 1014.8 hPa SSW 7.4 km/h 7.4 km/h 78 % 0 mm 0.0 W/m2 SCT
00:42 16.1 °C 12.4 °C 1014.4 hPa South 9.3 km/h 9.3 km/h 79 % 0 mm 0.0 W/m2 SCT
00:47 16.1 °C 12.4 °C 1014.4 hPa SSE 13 km/h 13 km/h 79 % 0 mm 0.0 W/m2 SCT
00:52 16.1 °C 12.4 °C 1014.4 hPa South 11.3 km/h 11.3 km/h 79 % 0 mm 0.0 W/m2 SCT
00:57 16.1 °C 12.4 °C 1014.4 hPa SSE 14.8 km/h 14.8 km/h 79 % 0 mm 0.0 W/m2 SCT
01:02 16.2 °C 12.5 °C 1014.4 hPa SSE 11.1 km/h 11.1 km/h 79 % 0 mm 0.0 W/m2 SCT
01:07 16.2 °C 12.6 °C 1014.4 hPa SE 5.6 km/h 5.6 km/h 79 % 0 mm 0.0 W/m2 SCT
01:12 16.2 °C 12.6 °C 1014.4 hPa SSE 5.6 km/h 5.6 km/h 79 % 0 mm 0.0 W/m2 SCT
01:17 16.2 °C 12.6 °C 1014.4 hPa South 8 km/h 8 km/h 79 % 0 mm 0.0 W/m2 SCT
01:22 16.2 °C 12.6 °C 1014.4 hPa SSE 7.4 km/h 7.4 km/h 79 % 0 mm 0.0 W/m2 SCT
01:27 16.2 °C 12.5 °C 1014.1 hPa SSE 5.6 km/h 5.6 km/h 79 % 0 mm 0.0 W/m2 SCT
01:32 16.2 °C 12.5 °C 1014.1 hPa SE 1.9 km/h 1.9 km/h 79 % 0 mm 0.0 W/m2 SCT
01:37 16.1 °C 12.4 °C 1014.1 hPa SSE 3.2 km/h 3.2 km/h 79 % 0 mm 0.0 W/m2 SCT
01:42 16.1 °C 12.4 °C 1014.1 hPa SSE 5.6 km/h 5.6 km/h 79 % 0 mm 0.0 W/m2 SCT
01:47 16 °C 12.3 °C 1014.1 hPa South 5.6 km/h 5.6 km/h 79 % 0 mm 0.0 W/m2 SCT
01:52 15.9 °C 12.3 °C 1014.1 hPa South 1.9 km/h 1.9 km/h 79 % 0 mm 0.0 W/m2 SCT
01:57 15.8 °C 12.2 °C 1014.1 hPa South 1.9 km/h 1.9 km/h 79 % 0 mm 0.0 W/m2 SCT
02:02 15.7 °C 12.1 °C 1014.1 hPa Calm   0.2 km/h 79 % 0 mm 0.0 W/m2 SCT
02:07 15.6 °C 12 °C 1014.1 hPa Calm     79 % 0 mm 0.0 W/m2 SCT
02:12 15.5 °C 11.9 °C 1014.1 hPa Calm     79 % 0 mm 0.0 W/m2 SCT
02:17 15.4 °C 11.9 °C 1014.1 hPa Calm     80 % 0 mm 0.0 W/m2 SCT
02:22 15.3 °C 11.8 °C 1014.1 hPa Calm     80 % 0 mm 0.0 W/m2 SCT
02:27 15.2 °C 11.7 °C 1014.1 hPa North 3.7 km/h 3.7 km/h 80 % 0 mm 0.0 W/m2 SCT
02:32 15.1 °C 11.8 °C 1014.1 hPa NW 5.6 km/h 5.6 km/h 81 % 0 mm 0.0 W/m2 SCT
02:37 14.9 °C 11.7 °C 1014.1 hPa NW 5.6 km/h 5.6 km/h 81 % 0 mm 0.0 W/m2 SCT
02:42 14.8 °C 11.6 °C 1014.1 hPa NW 1.9 km/h 1.9 km/h 81 % 0 mm 0.0 W/m2 SCT
02:47 14.7 °C 11.6 °C 1013.8 hPa NW 3.7 km/h 3.7 km/h 82 % 0 mm 0.0 W/m2 SCT
02:52 14.6 °C 11.5 °C 1013.8 hPa NW 1.9 km/h 1.9 km/h 82 % 0 mm 0.0 W/m2 SCT
02:57 14.4 °C 11.4 °C 1013.8 hPa NW 1.9 km/h 1.9 km/h 82 % 0 mm 0.0 W/m2 SCT
03:02 14.3 °C 11.5 °C 1013.8 hPa NW 3.7 km/h 3.7 km/h 83 % 0 mm 0.0 W/m2 SCT
03:07 14.2 °C 11.4 °C 1013.8 hPa NW 1.9 km/h   83 % 0 mm 0.0 W/m2 SCT
03:12 14.1 °C 11.3 °C 1013.4 hPa Calm     83 % 0 mm 0.0 W/m2 SCT
03:17 14 °C 11.2 °C 1013.4 hPa Calm     83 % 0 mm 0.0 W/m2 SCT
03:22 13.9 °C 11.1 °C 1013.4 hPa NW 3.7 km/h 3.7 km/h 83 % 0 mm 0.0 W/m2 SCT
03:27 13.8 °C 11.2 °C 1013.4 hPa NNW 3.7 km/h 3.7 km/h 84 % 0 mm 0.0 W/m2 SCT
03:32 13.8 °C 11.1 °C 1013.4 hPa Calm     84 % 0 mm 0.0 W/m2 SCT
03:37 13.7 °C 11 °C 1013.1 hPa Calm     84 % 0 mm 0.0 W/m2 SCT
03:42 13.6 °C 10.9 °C 1013.1 hPa NNW 3.7 km/h 3.7 km/h 84 % 0 mm 0.0 W/m2 SCT
03:47 13.4 °C 10.9 °C 1013.1 hPa NNW 1.9 km/h 1.9 km/h 85 % 0 mm 0.0 W/m2 SCT
03:52 13.3 °C 10.9 °C 1013.1 hPa Calm     85 % 0 mm 0.0 W/m2 SCT
03:57 13.2 °C 10.6 °C 1013.1 hPa Calm     84 % 0 mm 0.0 W/m2 SCT
04:02 13.1 °C 10.6 °C 1012.8 hPa NNW 3.7 km/h   85 % 0 mm 0.0 W/m2 SCT
04:07 12.9 °C 10.5 °C 1012.8 hPa Calm     85 % 0 mm 0.0 W/m2 SCT
04:12 12.8 °C 10.4 °C 1012.8 hPa Calm   0.2 km/h 85 % 0 mm 0.0 W/m2 SCT
04:17 12.8 °C 10.4 °C 1012.8 hPa NNW 3.7 km/h 3.7 km/h 85 % 0 mm 0.0 W/m2 SCT
04:22 12.8 °C 10.5 °C 1012.4 hPa Calm     86 % 0 mm 0.0 W/m2 SCT
04:27 12.7 °C 10.4 °C 1012.4 hPa NNW 3.7 km/h 3.7 km/h 86 % 0 mm 0.0 W/m2 SCT
04:32 12.7 °C 10.4 °C 1012.4 hPa NNW 1.9 km/h 1.9 km/h 86 % 0 mm 0.0 W/m2 SCT
04:37 12.6 °C 10.5 °C 1012.4 hPa NNW 3.2 km/h 3.2 km/h 87 % 0 mm 0.0 W/m2 SCT
04:42 12.7 °C 10.6 °C 1012.1 hPa NE 5.6 km/h 5.6 km/h 87 % 0 mm 0.0 W/m2 SCT
04:47 12.8 °C 10.8 °C 1012.1 hPa Calm   0.5 km/h 88 % 0 mm 5.0 W/m2 SCT
04:52 12.8 °C 10.8 °C 1012.1 hPa North 4.8 km/h 4.8 km/h 88 % 0 mm 7.0 W/m2 SCT
04:57 12.8 °C 10.9 °C 1012.4 hPa NNE 3.7 km/h 3.7 km/h 88 % 0 mm 9.0 W/m2 SCT
05:02 12.8 °C 10.8 °C 1012.1 hPa NNE 5.6 km/h 5.6 km/h 88 % 0 mm 11.0 W/m2 SCT
05:07 12.8 °C 10.8 °C 1012.1 hPa NE 1.9 km/h 1.9 km/h 88 % 0 mm 14.0 W/m2 SCT
05:12 12.8 °C 10.8 °C 1012.1 hPa NE 3.7 km/h 3.7 km/h 88 % 0 mm 16.0 W/m2 SCT
05:17 12.8 °C 11 °C 1012.1 hPa NE 3.7 km/h   89 % 0 mm 18.0 W/m2 SCT
05:22 12.7 °C 10.9 °C 1012.1 hPa NE 1.9 km/h   89 % 0 mm 19.0 W/m2 SCT
05:27 12.7 °C 10.9 °C 1012.1 hPa NE 3.2 km/h 3.2 km/h 89 % 0 mm 21.0 W/m2 SCT
05:32 12.7 °C 10.9 °C 1012.1 hPa Calm     89 % 0 mm 23.0 W/m2 SCT
05:37 12.7 °C 10.9 °C 1012.1 hPa NE 1.9 km/h   89 % 0 mm 25.0 W/m2 SCT
05:42 12.7 °C 10.9 °C 1012.1 hPa NE 1.9 km/h   89 % 0 mm 26.0 W/m2 SCT
05:47 12.7 °C 10.9 °C 1012.1 hPa NE 1.9 km/h 1.9 km/h 89 % 0 mm 30.0 W/m2 SCT
05:52 12.7 °C 10.9 °C 1012.1 hPa North 3.7 km/h 3.7 km/h 89 % 0 mm 32.0 W/m2 SCT
05:57 12.7 °C 10.9 °C 1012.1 hPa NNW 3.7 km/h 3.7 km/h 89 % 0 mm 33.0 W/m2 SCT
05:58 12.7 °C 10.9 °C 1012.1 hPa NNW 3.7 km/h 3.7 km/h 89 % 0 mm 33.0 W/m2 SCT
06:03 12.7 °C 10.9 °C 1012.1 hPa North 5.6 km/h 5.6 km/h 89 % 0 mm 35.0 W/m2 SCT
06:08 12.7 °C 10.9 °C 1012.1 hPa North 3.7 km/h 3.7 km/h 89 % 0 mm 37.0 W/m2 SCT
06:13 12.8 °C 11.2 °C 1012.1 hPa North 1.9 km/h 1.9 km/h 90 % 0 mm 39.0 W/m2 SCT
06:18 12.8 °C 11.2 °C 1012.4 hPa WNW 3.7 km/h 3.7 km/h 90 % 0 mm 42.0 W/m2 SCT
06:23 12.8 °C 11.2 °C 1012.4 hPa WNW 1.9 km/h 1.9 km/h 90 % 0 mm 44.0 W/m2 SCT
06:28 12.8 °C 11.2 °C 1012.1 hPa Calm     90 % 0 mm 46.0 W/m2 SCT
06:33 12.8 °C 11.2 °C 1012.1 hPa Calm     90 % 0 mm 47.0 W/m2 SCT
06:38 12.9 °C 11.3 °C 1011.7 hPa Calm     90 % 0 mm 47.0 W/m2 SCT
06:43 12.9 °C 11.3 °C 1011.7 hPa Calm     90 % 0 mm 47.0 W/m2 SCT
06:48 12.9 °C 11.3 °C 1011.4 hPa WNW 1.9 km/h 1.9 km/h 90 % 0 mm 60.0 W/m2 SCT
06:53 13 °C 11.4 °C 1011.4 hPa Calm     90 % 0 mm 216.0 W/m2 SCT
06:58 13.2 °C 11.6 °C 1011.4 hPa Calm     90 % 0 mm 227.0 W/m2 SCT
07:03 13.3 °C 11.9 °C 1011.7 hPa WNW 5.6 km/h 5.6 km/h 91 % 0 mm 239.0 W/m2 SCT
Billingham Weather Station
Compliments of Weather Underground - 2.5 mb